Time;durP1;ratioP1;P1;durP2;ratioP2;P2;SDS_P1;SDS_P2;PMS_P1;PMS_P2;Temp;Humidity;BMP_temperature;BMP_pressure;BME280_temperature;BME280_humidity;BME280_pressure;Samples;Min_cycle;Max_cycle;Signal;HPM_P1;HPM_P2
2023/04/24 00:00:33;;;;;;;3.87;3.67;;;11.70;99.90;;;;;;2609665;54;20138;-68
2023/04/24 00:06:23;;;;;;;3.00;2.80;;;11.60;99.90;;;;;;2610542;54;20142;-68
2023/04/24 00:12:11;;;;;;;3.40;3.20;;;11.50;99.90;;;;;;2610898;54;20418;-67
2023/04/24 00:18:01;;;;;;;3.33;3.13;;;11.30;99.90;;;;;;2610063;54;20178;-68
2023/04/24 00:23:48;;;;;;;5.03;3.93;;;11.30;99.90;;;;;;2608783;54;20423;-68
2023/04/24 00:29:36;;;;;;;5.67;3.67;;;11.20;99.90;;;;;;2609207;46;20170;-67
2023/04/24 00:35:24;;;;;;;3.63;3.43;;;11.10;99.90;;;;;;2613724;54;20134;-68
2023/04/24 00:45:14;;;;;;;3.60;3.40;;;11.00;99.90;;;;;;2609063;54;20359;-68
2023/04/24 00:51:02;;;;;;;3.67;3.47;;;11.10;99.90;;;;;;2610980;54;20383;-68
2023/04/24 00:56:52;;;;;;;3.10;2.90;;;10.80;99.90;;;;;;2610094;54;20667;-67
2023/04/24 01:02:43;;;;;;;3.87;3.47;;;10.60;99.90;;;;;;2612502;54;20392;-66
2023/04/24 01:08:31;;;;;;;3.97;3.67;;;10.40;99.90;;;;;;2611851;54;20484;-67
2023/04/24 01:14:18;;;;;;;3.80;3.50;;;10.40;99.90;;;;;;2613535;31;20616;-67
2023/04/24 01:20:07;;;;;;;4.80;4.40;;;10.40;99.90;;;;;;2611920;39;20856;-66
2023/04/24 01:25:55;;;;;;;3.70;3.50;;;10.50;99.90;;;;;;2609596;54;20430;-67
2023/04/24 01:31:43;;;;;;;5.67;4.33;;;10.40;99.90;;;;;;2612436;54;20407;-66
2023/04/24 01:37:32;;;;;;;4.30;4.00;;;10.30;99.90;;;;;;2610104;54;20967;-67
2023/04/24 01:40:43;;;;;;;4.70;4.40;;;10.20;99.90;;;;;;2611869;54;20490;-66
2023/04/24 01:43:09;;;;;;;5.30;4.10;;;10.10;99.90;;;;;;2613800;54;20423;-66
2023/04/24 01:49:00;;;;;;;6.00;5.40;;;9.90;99.90;;;;;;2613189;54;20130;-67
2023/04/24 01:54:47;;;;;;;5.70;5.20;;;9.90;99.90;;;;;;2609590;54;20395;-67
2023/04/24 02:00:35;;;;;;;5.53;5.03;;;9.90;99.90;;;;;;2608786;54;20265;-67
2023/04/24 02:06:23;;;;;;;6.73;4.40;;;9.60;99.90;;;;;;2611935;54;20154;-67
2023/04/24 02:12:11;;;;;;;5.40;4.73;;;9.60;99.90;;;;;;2609440;54;20423;-67
2023/04/24 02:17:59;;;;;;;4.20;3.90;;;9.50;99.90;;;;;;2609766;54;20202;-68
2023/04/24 02:23:47;;;;;;;6.70;6.10;;;9.50;99.90;;;;;;2610260;54;20151;-68
2023/04/24 02:29:35;;;;;;;7.83;6.53;;;9.60;99.90;;;;;;2610607;54;20652;-66
2023/04/24 02:35:22;;;;;;;9.10;7.63;;;9.60;99.90;;;;;;2610632;54;20127;-66
2023/04/24 02:45:21;;;;;;;9.60;8.33;;;9.50;99.90;;;;;;2610752;54;20363;-67
2023/04/24 02:51:09;;;;;;;12.13;8.60;;;9.40;99.90;;;;;;2608186;54;20391;-73
2023/04/24 02:56:57;;;;;;;11.63;10.47;;;9.50;99.90;;;;;;2610355;54;20447;-74
2023/04/24 03:02:45;;;;;;;12.07;9.97;;;9.50;99.90;;;;;;2611702;54;20122;-73
2023/04/24 03:08:33;;;;;;;11.07;9.87;;;9.60;99.90;;;;;;2609233;39;20942;-73
2023/04/24 03:14:20;;;;;;;10.33;8.53;;;9.60;99.90;;;;;;2610806;54;20219;-74
2023/04/24 03:20:09;;;;;;;15.80;11.57;;;9.70;99.90;;;;;;2610597;54;20130;-68
2023/04/24 03:25:57;;;;;;;16.93;10.80;;;9.70;99.90;;;;;;2609385;54;20395;-68
2023/04/24 03:31:45;;;;;;;14.10;11.73;;;9.70;99.90;;;;;;2608935;54;20134;-68
2023/04/24 03:37:33;;;;;;;15.10;12.80;;;9.70;99.90;;;;;;2610412;54;20138;-68
2023/04/24 03:40:51;;;;;;;16.23;12.50;;;9.70;99.90;;;;;;2611155;54;20391;-67
2023/04/24 03:43:17;;;;;;;13.17;10.97;;;9.70;99.90;;;;;;2614537;54;20178;-68
2023/04/24 03:49:04;;;;;;;15.70;10.70;;;9.80;99.90;;;;;;2613090;39;20530;-67
2023/04/24 03:54:52;;;;;;;16.83;12.57;;;9.80;99.90;;;;;;2609148;54;20146;-68
2023/04/24 04:00:40;;;;;;;14.83;11.63;;;9.80;99.90;;;;;;2609432;54;20166;-67
2023/04/24 04:06:28;;;;;;;15.93;11.30;;;9.80;99.90;;;;;;2608930;54;20416;-68
2023/04/24 04:12:15;;;;;;;13.50;11.63;;;9.80;99.90;;;;;;2610560;54;20146;-68
2023/04/24 04:18:03;;;;;;;16.37;12.47;;;9.80;99.90;;;;;;2610075;54;20130;-67
2023/04/24 04:21:07;;;;;;;15.63;11.60;;;9.70;99.90;;;;;;2609624;39;20466;-67
2023/04/24 04:23:33;;;;;;;14.10;12.03;;;9.70;99.90;;;;;;2610722;46;20698;-68
2023/04/24 04:29:20;;;;;;;17.10;12.73;;;9.80;99.90;;;;;;2611507;54;20146;-67
2023/04/24 04:35:09;;;;;;;15.47;11.30;;;9.80;99.90;;;;;;2610352;54;20158;-68
2023/04/24 04:47:23;;;;;;;12.37;10.70;;;9.80;99.90;;;;;;2609768;54;20402;-68
2023/04/24 04:53:10;;;;;;;14.90;13.30;;;9.80;99.90;;;;;;2609390;54;20969;-67
2023/04/24 04:58:59;;;;;;;18.90;12.53;;;9.80;99.90;;;;;;2610064;54;20258;-67
2023/04/24 05:04:46;;;;;;;12.97;9.50;;;9.80;99.90;;;;;;2610015;54;20382;-67
2023/04/24 05:10:36;;;;;;;12.33;11.13;;;9.80;99.90;;;;;;2610199;54;20142;-67
2023/04/24 05:16:24;;;;;;;14.47;12.33;;;9.80;99.90;;;;;;2609533;54;20394;-70
2023/04/24 05:22:12;;;;;;;13.70;11.73;;;9.80;99.90;;;;;;2609814;54;20125;-67
2023/04/24 05:28:00;;;;;;;12.47;9.20;;;9.80;99.90;;;;;;2610948;54;20126;-68
2023/04/24 05:31:14;;;;;;;10.40;9.20;;;9.80;99.90;;;;;;2613249;54;20371;-68
2023/04/24 05:33:39;;;;;;;13.30;10.57;;;9.70;99.90;;;;;;2607589;54;20181;-68
2023/04/24 05:39:27;;;;;;;9.00;8.10;;;9.60;99.90;;;;;;2609330;54;20131;-67
2023/04/24 05:48:37;;;;;;;13.57;11.13;;;9.00;99.90;;;;;;2609517;54;20441;-67
2023/04/24 05:54:25;;;;;;;14.63;11.73;;;9.00;99.90;;;;;;2611060;54;20151;-68
2023/04/24 06:00:13;;;;;;;16.10;8.37;;;8.80;99.90;;;;;;2611562;54;20261;-68
2023/04/24 06:06:01;;;;;;;14.70;11.50;;;8.80;99.90;;;;;;2611596;54;20523;-67
2023/04/24 06:11:50;;;;;;;14.30;11.10;;;8.90;99.90;;;;;;2610704;54;20142;-68
2023/04/24 06:17:38;;;;;;;9.17;8.20;;;9.00;99.90;;;;;;2611497;54;20451;-68
2023/04/24 06:23:25;;;;;;;13.47;9.50;;;9.00;99.90;;;;;;2613127;54;20130;-67
2023/04/24 06:29:13;;;;;;;12.93;9.47;;;9.10;99.90;;;;;;2612861;54;20133;-67
2023/04/24 06:35:01;;;;;;;10.43;8.40;;;9.10;99.90;;;;;;2612510;54;20122;-68
2023/04/24 06:40:48;;;;;;;13.63;9.73;;;9.00;99.90;;;;;;2611516;54;20150;-68
2023/04/24 06:44:07;;;;;;;11.63;8.93;;;9.10;99.90;;;;;;2610656;54;20491;-68
2023/04/24 06:46:33;;;;;;;10.07;9.07;;;9.00;99.90;;;;;;2609012;54;20162;-67
2023/04/24 06:52:21;;;;;;;9.07;5.83;;;9.50;99.90;;;;;;2611211;54;21656;-68
2023/04/24 06:58:09;;;;;;;10.20;8.80;;;9.30;99.90;;;;;;2611243;54;20122;-68
2023/04/24 07:03:56;;;;;;;11.77;9.83;;;9.20;99.90;;;;;;2613482;39;20793;-69
2023/04/24 07:09:45;;;;;;;9.93;7.50;;;9.30;99.90;;;;;;2611036;54;20138;-69
2023/04/24 07:15:33;;;;;;;8.00;7.20;;;9.10;99.90;;;;;;2611044;54;20507;-68
2023/04/24 07:21:21;;;;;;;14.40;6.50;;;9.00;99.90;;;;;;2614534;39;21090;-68
2023/04/24 07:24:15;;;;;;;5.73;5.20;;;9.20;99.90;;;;;;2612527;54;20404;-68
2023/04/24 07:26:41;;;;;;;5.60;4.60;;;9.20;99.90;;;;;;2612895;54;20157;-68
2023/04/24 07:32:29;;;;;;;3.97;3.53;;;9.30;99.90;;;;;;2614156;54;20146;-68
2023/04/24 07:38:16;;;;;;;5.00;4.40;;;9.20;99.90;;;;;;2613543;54;20123;-68
2023/04/24 07:44:04;;;;;;;6.07;3.40;;;9.10;99.90;;;;;;2614278;54;20158;-68
2023/04/24 07:49:51;;;;;;;3.47;2.93;;;9.20;99.90;;;;;;2613284;54;20142;-68
2023/04/24 07:55:39;;;;;;;4.27;2.73;;;9.10;99.90;;;;;;2611793;54;20170;-68
2023/04/24 08:01:27;;;;;;;3.90;2.50;;;9.40;99.90;;;;;;2611755;54;20170;-67
2023/04/24 08:07:15;;;;;;;2.07;1.87;;;9.10;99.90;;;;;;2609239;54;20162;-69
2023/04/24 08:13:03;;;;;;;1.90;1.33;;;8.70;99.90;;;;;;2608489;54;20371;-68
2023/04/24 08:18:51;;;;;;;1.47;1.37;;;9.00;99.90;;;;;;2607670;54;20126;-68
2023/04/24 08:24:39;;;;;;;3.43;1.70;;;8.90;99.90;;;;;;2612504;39;20714;-69
2023/04/24 08:30:27;;;;;;;1.73;1.50;;;8.60;99.90;;;;;;2610129;54;20130;-68
2023/04/24 08:33:47;;;;;;;2.07;1.67;;;8.40;99.90;;;;;;2610768;54;20426;-68
2023/04/24 08:36:13;;;;;;;1.70;1.60;;;8.40;99.90;;;;;;2612931;54;20150;-69
2023/04/24 08:42:05;;;;;;;1.73;1.63;;;8.40;99.90;;;;;;2609232;46;20158;-75
2023/04/24 08:51:15;;;;;;;2.60;1.90;;;8.00;99.90;;;;;;2613687;54;20367;-73
2023/04/24 08:57:03;;;;;;;3.70;2.73;;;8.00;99.90;;;;;;2612739;39;20730;-75
2023/04/24 09:02:53;;;;;;;4.43;4.03;;;8.10;99.90;;;;;;2613188;39;20815;-75
2023/04/24 09:08:42;;;;;;;4.07;3.70;;;8.50;99.90;;;;;;2613937;54;20375;-74
2023/04/24 09:14:31;;;;;;;4.10;2.53;;;8.80;99.90;;;;;;2613617;54;20371;-74
2023/04/24 09:20:20;;;;;;;6.60;3.80;;;9.00;99.90;;;;;;2610985;54;21233;-74
2023/04/24 09:26:09;;;;;;;3.87;3.00;;;9.00;99.90;;;;;;2612977;54;21210;-74
2023/04/24 09:31:57;;;;;;;6.07;3.00;;;9.00;99.90;;;;;;2613039;54;20439;-74
2023/04/24 09:37:46;;;;;;;3.97;3.63;;;8.90;99.90;;;;;;2611586;54;20131;-74
2023/04/24 09:43:35;;;;;;;3.53;3.03;;;8.70;99.90;;;;;;2613302;54;20469;-74
2023/04/24 09:46:38;;;;;;;4.10;2.50;;;8.70;99.90;;;;;;2612840;54;20410;-75
2023/04/24 09:49:15;;;;;;;4.73;3.87;;;8.80;99.90;;;;;;2612737;54;20443;-75
2023/04/24 09:58:14;;;;;;;8.70;3.83;;;8.80;99.90;;;;;;2610986;54;20463;-73
2023/04/24 10:00:40;;;;;;;5.30;4.20;;;8.70;99.90;;;;;;2610921;54;20443;-75
2023/04/24 10:06:34;;;;;;;4.83;3.40;;;8.60;99.90;;;;;;2612653;54;20512;-75
2023/04/24 10:12:22;;;;;;;8.13;4.20;;;8.50;99.90;;;;;;2611658;54;20510;-74
2023/04/24 10:15:25;;;;;;;6.80;4.43;;;8.50;99.90;;;;;;2613774;54;20475;-75
2023/04/24 10:17:52;;;;;;;7.07;5.70;;;8.50;99.90;;;;;;2612609;54;20391;-74
2023/04/24 10:23:41;;;;;;;7.50;4.30;;;8.60;99.90;;;;;;2612613;54;20387;-74
2023/04/24 10:29:31;;;;;;;7.67;5.73;;;8.70;99.90;;;;;;2612049;54;20494;-75
2023/04/24 10:35:22;;;;;;;8.33;7.20;;;8.80;99.90;;;;;;2613167;54;20414;-75
2023/04/24 10:41:16;;;;;;;10.53;6.23;;;8.80;99.90;;;;;;2612977;54;20378;-75
2023/04/24 10:51:12;;;;;;;24.23;6.97;;;8.80;99.90;;;;;;2611586;54;20427;-75
2023/04/24 10:57:21;;;;;;;10.53;7.70;;;8.90;99.90;;;;;;2612700;54;20394;-74
2023/04/24 11:10:00;;;;;;;17.33;7.33;;;8.90;99.90;;;;;;2612625;54;20395;-74
2023/04/24 11:16:14;;;;;;;16.87;8.77;;;9.00;99.90;;;;;;2610356;39;21003;-75
2023/04/24 11:28:24;;;;;;;9.60;6.20;;;9.20;99.90;;;;;;2611689;54;20964;-74
2023/04/24 11:34:14;;;;;;;18.73;8.33;;;9.80;99.90;;;;;;2610423;54;20371;-75
2023/04/24 11:40:03;;;;;;;10.23;7.70;;;10.80;99.90;;;;;;2611908;54;20395;-75
2023/04/24 11:45:50;;;;;;;11.47;8.00;;;10.50;99.90;;;;;;2613119;54;20394;-76
2023/04/24 11:51:38;;;;;;;15.90;6.50;;;9.80;99.90;;;;;;2612642;54;20186;-75
2023/04/24 11:54:56;;;;;;;16.37;7.87;;;9.30;99.90;;;;;;2615073;31;20842;-77
2023/04/24 12:00:45;;;;;;;9.23;6.77;;;9.30;99.90;;;;;;2612703;54;20407;-76
2023/04/24 12:06:32;;;;;;;5.37;4.70;;;9.30;99.90;;;;;;2613405;54;21122;-76
2023/04/24 12:12:20;;;;;;;9.40;6.23;;;9.90;99.90;;;;;;2614084;54;20127;-75
2023/04/24 12:18:12;;;;;;;6.40;5.20;;;10.50;99.90;;;;;;2611906;39;20502;-77
2023/04/24 12:24:00;;;;;;;8.70;5.77;;;10.60;99.90;;;;;;2611162;54;20390;-75
2023/04/24 12:29:56;;;;;;;9.90;6.00;;;10.90;99.90;;;;;;2613266;54;20142;-76
2023/04/24 12:35:44;;;;;;;9.20;7.83;;;10.50;99.90;;;;;;2610912;54;20483;-76
2023/04/24 12:41:32;;;;;;;9.73;5.50;;;10.20;99.90;;;;;;2614089;54;20400;-76
2023/04/24 12:47:20;;;;;;;10.00;6.53;;;10.00;99.90;;;;;;2613186;39;20525;-77
2023/04/24 12:50:25;;;;;;;10.57;7.47;;;9.90;99.90;;;;;;2611456;50;20447;-76
2023/04/24 12:52:51;;;;;;;13.63;6.20;;;9.90;99.90;;;;;;2613009;54;20143;-76
2023/04/24 12:58:38;;;;;;;6.77;6.17;;;10.00;99.90;;;;;;2613163;54;20142;-76
2023/04/24 13:04:26;;;;;;;6.27;5.13;;;10.60;99.90;;;;;;2612936;54;20134;-75
2023/04/24 13:10:14;;;;;;;7.80;5.47;;;11.20;99.90;;;;;;2612871;54;20131;-76
2023/04/24 13:16:01;;;;;;;6.80;5.93;;;11.10;99.90;;;;;;2612556;54;20162;-76
2023/04/24 13:21:49;;;;;;;6.40;5.90;;;10.70;99.90;;;;;;2612777;54;20744;-76
2023/04/24 13:27:39;;;;;;;6.67;5.80;;;10.90;99.90;;;;;;2610373;31;20632;-76
2023/04/24 13:33:26;;;;;;;6.20;5.63;;;10.70;99.90;;;;;;2611881;54;20419;-77
2023/04/24 13:39:14;;;;;;;5.20;4.73;;;10.60;99.90;;;;;;2612735;54;20158;-76
2023/04/24 13:45:03;;;;;;;5.33;4.93;;;10.70;99.90;;;;;;2610963;54;20121;-75
2023/04/24 13:54:57;;;;;;;6.30;5.93;;;10.60;99.90;;;;;;2610973;54;20452;-76
2023/04/24 14:00:44;;;;;;;8.60;6.77;;;10.50;99.90;;;;;;2610831;54;20378;-76
2023/04/24 14:06:33;;;;;;;6.27;5.77;;;10.90;99.40;;;;;;2611518;54;20134;-76
2023/04/24 14:12:21;;;;;;;6.37;5.90;;;11.70;90.60;;;;;;2612097;54;20367;-76
2023/04/24 14:18:08;;;;;;;7.27;6.77;;;12.20;87.40;;;;;;2610756;39;20814;-77
2023/04/24 14:23:56;;;;;;;5.67;5.13;;;11.50;78.60;;;;;;2612012;54;20259;-76
2023/04/24 14:29:45;;;;;;;6.80;6.20;;;11.30;89.10;;;;;;2611680;54;20139;-76
2023/04/24 14:35:33;;;;;;;6.23;5.93;;;11.10;86.70;;;;;;2613447;54;20503;-76
2023/04/24 14:41:21;;;;;;;6.40;5.93;;;10.90;89.50;;;;;;2610466;54;20431;-77
2023/04/24 14:47:09;;;;;;;6.73;6.27;;;10.70;92.70;;;;;;2612030;54;20470;-76
2023/04/24 14:50:27;;;;;;;6.53;5.90;;;10.60;97.50;;;;;;2613327;39;20780;-76
2023/04/24 14:52:55;;;;;;;6.03;5.73;;;10.50;94.20;;;;;;2612137;39;20606;-76
2023/04/24 14:58:42;;;;;;;6.20;5.60;;;10.10;99.90;;;;;;2613541;54;20914;-76
2023/04/24 15:04:30;;;;;;;5.93;5.50;;;9.90;99.90;;;;;;2610769;39;20298;-75
2023/04/24 15:10:18;;;;;;;5.80;5.40;;;9.70;99.90;;;;;;2609646;54;20393;-76
2023/04/24 15:16:06;;;;;;;4.60;4.20;;;9.80;99.90;;;;;;2613278;54;20193;-76
2023/04/24 15:21:53;;;;;;;6.87;4.53;;;10.30;99.90;;;;;;2608444;54;20122;-77
2023/04/24 15:27:43;;;;;;;6.60;3.93;;;10.50;99.90;;;;;;2614283;54;20130;-76
2023/04/24 15:33:30;;;;;;;4.77;4.27;;;11.20;99.90;;;;;;2614454;54;20362;-76
2023/04/24 15:39:22;;;;;;;5.07;4.57;;;11.50;99.90;;;;;;2614822;39;20502;-76
2023/04/24 15:45:11;;;;;;;5.47;4.97;;;11.50;99.90;;;;;;2612406;54;20917;-76
2023/04/24 15:54:58;;;;;;;7.60;5.50;;;11.10;99.90;;;;;;2613613;39;20935;-75
2023/04/24 16:00:45;;;;;;;6.93;6.33;;;12.00;99.90;;;;;;2613867;54;20395;-77
2023/04/24 16:03:48;;;;;;;6.10;5.10;;;11.40;95.70;;;;;;2614144;54;20483;-76
2023/04/24 16:06:14;;;;;;;4.57;4.27;;;11.10;95.90;;;;;;2612790;54;20158;-76
2023/04/24 16:12:02;;;;;;;4.90;4.70;;;11.30;94.60;;;;;;2613162;54;20151;-76
2023/04/24 16:17:50;;;;;;;6.10;5.50;;;11.10;98.30;;;;;;2612381;39;20472;-75
2023/04/24 16:23:37;;;;;;;6.80;6.20;;;12.00;88.00;;;;;;2611610;54;20481;-76
2023/04/24 16:29:25;;;;;;;7.70;7.10;;;11.60;83.30;;;;;;2613753;54;20142;-75
2023/04/24 16:35:13;;;;;;;6.17;5.77;;;11.10;89.70;;;;;;2613292;39;20540;-76
2023/04/24 16:41:01;;;;;;;7.37;6.77;;;10.80;80.20;;;;;;2613371;54;20115;-76
2023/04/24 16:46:49;;;;;;;6.53;6.13;;;10.80;82.60;;;;;;2612356;54;20181;-76
2023/04/24 16:52:37;;;;;;;6.30;5.90;;;10.70;83.70;;;;;;2609902;54;20423;-75
2023/04/24 16:58:25;;;;;;;6.37;5.97;;;10.60;89.10;;;;;;2614024;54;20387;-76
2023/04/24 17:04:13;;;;;;;7.33;6.83;;;10.60;91.40;;;;;;2613107;54;20178;-76
2023/04/24 17:10:00;;;;;;;6.50;6.10;;;10.40;98.20;;;;;;2614079;54;20126;-76
2023/04/24 17:15:48;;;;;;;6.27;5.67;;;9.60;99.90;;;;;;2613332;54;20478;-76
2023/04/24 17:21:36;;;;;;;5.17;4.67;;;9.20;99.90;;;;;;2612914;54;20140;-69
2023/04/24 17:27:24;;;;;;;7.93;6.27;;;9.00;99.90;;;;;;2613442;54;20143;-68
2023/04/24 17:33:11;;;;;;;6.27;5.33;;;9.00;99.90;;;;;;2610441;54;20407;-68
2023/04/24 17:38:59;;;;;;;5.90;5.37;;;9.10;99.90;;;;;;2614188;54;20125;-68
2023/04/24 17:44:47;;;;;;;5.97;5.30;;;9.10;99.90;;;;;;2614297;46;20157;-69
2023/04/24 17:54:56;;;;;;;7.23;6.53;;;9.40;99.90;;;;;;2609350;54;20375;-68
2023/04/24 18:00:43;;;;;;;10.77;6.90;;;9.60;99.90;;;;;;2612187;54;20399;-68
2023/04/24 18:06:31;;;;;;;6.67;6.07;;;9.40;99.90;;;;;;2609408;39;20279;-69
2023/04/24 18:12:19;;;;;;;6.87;6.27;;;9.30;99.90;;;;;;2609097;54;20167;-69
2023/04/24 18:18:07;;;;;;;8.63;6.60;;;9.10;99.90;;;;;;2607588;54;20158;-70
2023/04/24 18:23:59;;;;;;;7.33;6.30;;;9.00;99.90;;;;;;2610505;54;21229;-68
2023/04/24 18:29:46;;;;;;;8.13;6.50;;;8.90;99.90;;;;;;2611657;47;20898;-68
2023/04/24 18:35:34;;;;;;;7.13;6.43;;;9.00;99.90;;;;;;2612119;47;20151;-68
2023/04/24 18:41:22;;;;;;;11.43;7.10;;;8.90;99.90;;;;;;2611987;54;20130;-68
2023/04/24 18:47:10;;;;;;;11.97;8.57;;;8.50;99.90;;;;;;2611000;54;20251;-68
2023/04/24 18:50:26;;;;;;;13.13;8.40;;;8.50;99.90;;;;;;2607578;46;20395;-69
2023/04/24 18:52:52;;;;;;;17.03;8.77;;;8.50;99.90;;;;;;2607938;54;20391;-68
2023/04/24 18:58:43;;;;;;;8.37;7.23;;;8.40;99.90;;;;;;2608944;54;20138;-68
2023/04/24 19:04:31;;;;;;;10.80;6.00;;;8.40;99.90;;;;;;2612573;54;20366;-69
2023/04/24 19:10:18;;;;;;;7.50;6.80;;;8.40;99.90;;;;;;2613601;39;20537;-68
2023/04/24 19:16:06;;;;;;;11.77;9.30;;;8.20;99.90;;;;;;2612658;54;20867;-70
2023/04/24 19:21:54;;;;;;;8.13;7.37;;;8.10;99.90;;;;;;2612258;54;23840;-68
2023/04/24 19:27:42;;;;;;;11.27;8.57;;;8.10;99.90;;;;;;2608961;54;20383;-67
2023/04/24 19:33:30;;;;;;;9.00;6.57;;;8.00;99.90;;;;;;2614273;54;20134;-68
2023/04/24 19:39:17;;;;;;;9.70;7.37;;;7.80;99.90;;;;;;2610665;54;20151;-69
2023/04/24 19:45:05;;;;;;;15.17;7.33;;;7.80;99.90;;;;;;2609926;54;20155;-69
2023/04/24 19:54:55;;;;;;;7.83;7.03;;;7.90;99.90;;;;;;2613505;54;20378;-69
2023/04/24 20:00:43;;;;;;;12.07;9.70;;;7.80;99.90;;;;;;2613423;54;20391;-69
2023/04/24 20:06:31;;;;;;;18.73;11.00;;;7.60;99.90;;;;;;2614166;54;20455;-69
2023/04/24 20:12:19;;;;;;;11.30;8.73;;;7.90;99.90;;;;;;2611109;39;20616;-68
2023/04/24 20:18:07;;;;;;;20.30;9.03;;;8.00;99.90;;;;;;2611682;54;20387;-69
2023/04/24 20:23:54;;;;;;;8.23;7.37;;;7.90;99.90;;;;;;2612810;54;20122;-68
2023/04/24 20:29:42;;;;;;;10.90;8.00;;;7.80;99.90;;;;;;2609716;54;20146;-68
2023/04/24 20:35:30;;;;;;;9.80;8.83;;;7.80;99.90;;;;;;2614363;54;20657;-69
2023/04/24 20:41:18;;;;;;;8.80;7.63;;;7.60;99.90;;;;;;2612344;54;20193;-69
2023/04/24 20:47:06;;;;;;;11.20;7.50;;;7.60;99.90;;;;;;2613104;54;20364;-69
2023/04/24 20:50:26;;;;;;;11.60;8.43;;;7.50;99.90;;;;;;2613646;54;20403;-68
2023/04/24 20:52:52;;;;;;;9.97;7.10;;;7.60;99.90;;;;;;2612310;54;20162;-69
2023/04/24 20:58:40;;;;;;;19.10;11.23;;;7.60;99.90;;;;;;2610073;54;20145;-69
2023/04/24 21:04:27;;;;;;;13.50;8.93;;;7.40;99.90;;;;;;2608285;54;20992;-70
2023/04/24 21:10:15;;;;;;;12.27;8.23;;;7.30;99.90;;;;;;2612580;54;20637;-69
2023/04/24 21:16:03;;;;;;;13.90;7.37;;;7.30;99.90;;;;;;2611714;54;20134;-68
2023/04/24 21:21:50;;;;;;;9.83;8.53;;;7.10;99.90;;;;;;2611870;54;20122;-68
2023/04/24 21:27:38;;;;;;;10.07;7.87;;;7.00;99.90;;;;;;2613746;39;20516;-69
2023/04/24 21:33:25;;;;;;;11.77;7.33;;;6.80;99.90;;;;;;2614320;54;20622;-68
2023/04/24 21:39:13;;;;;;;14.30;8.00;;;6.90;99.90;;;;;;2614036;54;20137;-68
2023/04/24 21:45:01;;;;;;;11.47;8.47;;;6.80;99.90;;;;;;2613838;54;20138;-68
2023/04/24 21:48:04;;;;;;;11.83;8.73;;;6.90;99.90;;;;;;2614108;54;20423;-67
2023/04/24 21:50:30;;;;;;;12.23;8.97;;;7.00;99.90;;;;;;2612334;54;20434;-68
2023/04/24 21:52:56;;;;;;;11.77;8.43;;;6.90;99.90;;;;;;2612546;54;20443;-69
2023/04/24 21:55:22;;;;;;;18.43;9.50;;;7.00;99.90;;;;;;2613835;54;20150;-68
2023/04/24 22:01:10;;;;;;;11.77;9.10;;;7.00;99.90;;;;;;2609057;39;20526;-69
2023/04/24 22:06:58;;;;;;;11.40;9.10;;;6.90;99.90;;;;;;2610146;54;20409;-67
2023/04/24 22:12:47;;;;;;;13.87;8.03;;;6.80;99.90;;;;;;2613501;54;20170;-67
2023/04/24 22:18:35;;;;;;;12.27;8.97;;;6.60;99.90;;;;;;2612941;54;20367;-69
2023/04/24 22:24:22;;;;;;;12.80;7.80;;;6.90;99.90;;;;;;2610557;54;20162;-69
2023/04/24 22:30:10;;;;;;;10.20;8.20;;;7.00;99.90;;;;;;2612801;39;20900;-68
2023/04/24 22:35:58;;;;;;;11.43;8.33;;;6.90;99.90;;;;;;2613403;39;20596;-68
2023/04/24 22:41:46;;;;;;;12.80;9.97;;;6.80;99.90;;;;;;2613602;54;20684;-67
2023/04/24 22:47:34;;;;;;;13.93;8.30;;;6.90;99.90;;;;;;2612593;54;20912;-68
2023/04/24 22:57:28;;;;;;;21.30;7.87;;;6.80;99.90;;;;;;2613586;54;20363;-68
2023/04/24 23:03:16;;;;;;;17.33;8.80;;;7.00;99.90;;;;;;2611638;54;20379;-68
2023/04/24 23:09:04;;;;;;;14.77;9.40;;;7.00;99.90;;;;;;2611511;54;20133;-68
2023/04/24 23:14:51;;;;;;;21.33;8.90;;;7.00;99.90;;;;;;2613260;54;20153;-69
2023/04/24 23:20:39;;;;;;;15.57;9.33;;;6.90;99.90;;;;;;2613748;54;20123;-68
2023/04/24 23:26:27;;;;;;;12.23;7.50;;;6.70;99.90;;;;;;2613615;54;20174;-68
2023/04/24 23:32:15;;;;;;;17.07;8.00;;;6.70;99.90;;;;;;2612552;54;20154;-68
2023/04/24 23:38:02;;;;;;;15.33;9.10;;;6.70;99.90;;;;;;2613872;54;20137;-67
2023/04/24 23:43:50;;;;;;;15.47;9.53;;;6.80;99.90;;;;;;2612925;54;20182;-67
2023/04/24 23:49:38;;;;;;;14.40;8.10;;;6.90;99.90;;;;;;2612148;54;20147;-67
2023/04/24 23:52:57;;;;;;;11.97;8.17;;;6.90;99.90;;;;;;2610958;54;20961;-68
2023/04/24 23:55:22;;;;;;;17.97;8.10;;;7.00;99.90;;;;;;2612742;54;20169;-68
